createdAt,value
2023-05-21T00:00:20.799Z,100087.88
2023-05-21T00:02:47.592Z,100086.50
2023-05-21T00:05:15.485Z,100089.88
2023-05-21T00:07:42.195Z,100087.44
2023-05-21T00:10:09.121Z,100083.56
2023-05-21T00:12:35.867Z,100078.81
2023-05-21T00:15:02.500Z,100079.66
2023-05-21T00:17:29.065Z,100081.97
2023-05-21T00:19:56.834Z,100075.09
2023-05-21T00:22:23.862Z,100072.69
2023-05-21T00:24:50.750Z,100071.13
2023-05-21T00:27:17.568Z,100070.91
2023-05-21T00:29:44.592Z,100072.81
2023-05-21T00:32:11.414Z,100065.31
2023-05-21T00:34:38.252Z,100068.38
2023-05-21T00:37:05.042Z,100059.19
2023-05-21T00:39:31.668Z,100065.94
2023-05-21T00:41:58.329Z,100061.22
2023-05-21T00:44:25.473Z,100064.38
2023-05-21T00:46:53.633Z,100060.03
2023-05-21T00:49:24.277Z,100054.47
2023-05-21T00:51:52.137Z,100053.50
2023-05-21T00:54:18.944Z,100054.97
2023-05-21T00:56:46.614Z,100051.28
2023-05-21T00:59:15.910Z,100055.13
2023-05-21T01:01:45.789Z,100051.28
2023-05-21T01:04:12.706Z,100055.31
2023-05-21T01:06:39.433Z,100053.59
2023-05-21T01:09:07.103Z,100056.09
2023-05-21T01:11:46.683Z,100058.22
2023-05-21T01:14:15.019Z,100050.06
2023-05-21T01:17:02.546Z,100044.78
2023-05-21T01:19:50.206Z,100038.63
2023-05-21T01:22:57.655Z,100037.72
2023-05-21T01:25:44.747Z,100033.56
2023-05-21T01:28:33.550Z,100039.47
2023-05-21T01:31:28.228Z,100031.25
2023-05-21T01:34:00.460Z,100027.69
2023-05-21T01:36:34.621Z,100026.50
2023-05-21T01:39:07.705Z,100024.72
2023-05-21T01:41:38.593Z,100025.66
2023-05-21T01:44:06.996Z,100024.94
2023-05-21T01:46:36.280Z,100019.69
2023-05-21T01:49:05.438Z,100019.88
2023-05-21T01:51:33.083Z,100020.84
2023-05-21T01:53:59.548Z,100026.31
2023-05-21T01:56:28.578Z,100023.47
2023-05-21T01:58:59.496Z,100019.75
2023-05-21T02:01:30.497Z,100011.13
2023-05-21T02:03:58.159Z,100012.06
2023-05-21T02:06:25.441Z,100019.56
2023-05-21T02:08:52.038Z,100019.31
2023-05-21T02:11:18.507Z,100020.50
2023-05-21T02:13:46.188Z,100020.50
2023-05-21T02:16:14.785Z,100018.63
2023-05-21T02:18:43.483Z,100014.50
2023-05-21T02:21:11.498Z,100018.91
2023-05-21T02:23:38.291Z,100020.47
2023-05-21T02:26:05.098Z,100013.84
2023-05-21T02:28:32.755Z,100007.50
2023-05-21T02:30:59.626Z,100002.69
2023-05-21T02:33:26.158Z,100010.78
2023-05-21T02:35:52.776Z,100003.72
2023-05-21T02:38:19.414Z,100006.75
2023-05-21T02:40:46.489Z,100007.50
2023-05-21T02:43:15.889Z,100006.56
2023-05-21T02:45:43.751Z,100009.97
2023-05-21T02:48:11.518Z,100010.72
2023-05-21T02:50:41.032Z,100010.41
2023-05-21T02:53:08.163Z,100009.66
2023-05-21T02:55:36.052Z,100001.88
2023-05-21T02:58:03.030Z,100009.38
2023-05-21T03:00:29.564Z,99999.34
2023-05-21T03:02:56.727Z,100002.63
2023-05-21T03:05:23.373Z,100001.22
2023-05-21T03:07:50.295Z,99998.88
2023-05-21T03:10:17.133Z,100009.22
2023-05-21T03:12:43.853Z,100005.75
2023-05-21T03:15:14.829Z,99999.84
2023-05-21T03:17:42.294Z,99986.91
2023-05-21T03:20:15.961Z,99999.59
2023-05-21T03:22:44.578Z,100002.66
2023-05-21T03:25:12.645Z,99997.72
2023-05-21T03:27:39.733Z,99989.25
2023-05-21T03:30:13.507Z,99995.84
2023-05-21T03:32:57.875Z,99986.91
2023-05-21T03:35:24.453Z,99995.66
2023-05-21T03:37:51.251Z,99999.41
2023-05-21T03:40:18.062Z,99999.22
2023-05-21T03:42:44.787Z,99993.75
2023-05-21T03:45:11.809Z,100008.47
2023-05-21T03:48:05.597Z,99999.41
2023-05-21T03:50:32.521Z,100006.97
2023-05-21T03:52:59.441Z,100003.03
2023-05-21T03:55:26.274Z,100000.97
2023-05-21T03:57:52.745Z,100001.34
2023-05-21T04:00:19.327Z,100008.03
2023-05-21T04:02:47.733Z,100010.25
2023-05-21T04:05:16.703Z,100009.22
2023-05-21T04:07:46.292Z,100004.63
2023-05-21T04:10:13.170Z,100012.50
2023-05-21T04:12:39.607Z,100019.94
2023-05-21T04:15:07.012Z,100013.53
2023-05-21T04:17:35.515Z,100012.34
2023-05-21T04:20:02.058Z,100011.50
2023-05-21T04:22:30.254Z,100013.41
2023-05-21T04:24:56.880Z,100015.81
2023-05-21T04:27:28.010Z,100018.84
2023-05-21T04:29:54.794Z,100009.19
2023-05-21T04:32:24.167Z,100016.50
2023-05-21T04:34:51.072Z,100019.78
2023-05-21T04:37:17.892Z,100018.84
2023-05-21T04:39:45.605Z,100023.56
2023-05-21T04:42:12.346Z,100022.16
2023-05-21T04:44:40.308Z,100024.50
2023-05-21T04:47:08.087Z,100020.00
2023-05-21T04:49:36.216Z,100024.28
2023-05-21T04:52:02.709Z,100024.59
2023-05-21T04:54:29.405Z,100020.19
2023-05-21T04:56:56.101Z,100023.81
2023-05-21T04:59:22.785Z,100019.41
2023-05-21T05:01:49.499Z,100019.34
2023-05-21T05:04:16.178Z,100016.03
2023-05-21T05:06:42.914Z,100030.19
2023-05-21T05:09:09.691Z,100029.69
2023-05-21T05:11:36.544Z,100029.06
2023-05-21T05:14:03.855Z,100028.78
2023-05-21T05:16:31.231Z,100031.41
2023-05-21T05:18:58.064Z,100026.16
2023-05-21T05:21:24.886Z,100026.13
2023-05-21T05:23:51.563Z,100023.22
2023-05-21T05:26:21.535Z,100027.25
2023-05-21T05:28:49.443Z,100023.69
2023-05-21T05:31:16.259Z,100022.28
2023-05-21T05:33:43.763Z,100022.22
2023-05-21T05:36:10.909Z,100012.25
2023-05-21T05:38:37.770Z,100015.94
2023-05-21T05:41:04.346Z,100029.72
2023-05-21T05:43:31.282Z,100021.56
2023-05-21T05:45:59.145Z,100019.50
2023-05-21T05:48:25.862Z,100018.72
2023-05-21T05:50:54.752Z,100014.25
2023-05-21T05:53:25.308Z,100024.38
2023-05-21T05:55:53.783Z,100022.50
2023-05-21T05:58:20.426Z,100016.09
2023-05-21T06:00:56.723Z,100026.88
2023-05-21T06:03:24.499Z,100017.47
2023-05-21T06:05:52.927Z,100022.72
2023-05-21T06:08:19.479Z,100025.09
2023-05-21T06:10:46.002Z,100023.00
2023-05-21T06:13:13.021Z,100025.84
2023-05-21T06:15:43.034Z,100032.19
2023-05-21T06:18:09.720Z,100032.53
2023-05-21T06:20:36.439Z,100037.78
2023-05-21T06:23:02.994Z,100034.22
2023-05-21T06:25:29.505Z,100029.03
2023-05-21T06:27:56.963Z,100030.53
2023-05-21T06:30:26.440Z,100026.41
2023-05-21T06:32:53.448Z,100024.78
2023-05-21T06:35:20.499Z,100032.88
2023-05-21T06:37:48.793Z,100023.19
2023-05-21T06:40:15.936Z,100022.94
2023-05-21T06:42:42.965Z,100025.44
2023-05-21T06:45:29.765Z,100024.28
2023-05-21T06:48:00.714Z,100030.94
2023-05-21T06:50:27.337Z,100027.16
2023-05-21T06:52:53.939Z,100027.09
2023-05-21T06:55:20.807Z,100030.13
2023-05-21T06:58:05.422Z,100026.91
2023-05-21T07:00:32.029Z,100030.47
2023-05-21T07:02:58.660Z,100030.56
2023-05-21T07:05:26.069Z,100026.44
2023-05-21T07:07:54.263Z,100034.09
2023-05-21T07:10:21.105Z,100031.03
2023-05-21T07:12:47.810Z,100029.50
2023-05-21T07:15:14.619Z,100030.44
2023-05-21T07:17:41.471Z,100035.50
2023-05-21T07:20:09.753Z,100022.84
2023-05-21T07:22:39.202Z,100034.38
2023-05-21T07:25:07.411Z,100040.16
2023-05-21T07:27:34.209Z,100030.09
2023-05-21T07:30:00.992Z,100028.56
2023-05-21T07:32:30.492Z,100026.16
2023-05-21T07:35:02.051Z,100028.94
2023-05-21T07:37:30.858Z,100018.72
2023-05-21T07:40:00.494Z,100017.50
2023-05-21T07:42:27.257Z,100026.16
2023-05-21T07:44:56.016Z,100023.69
2023-05-21T07:47:23.928Z,100018.75
2023-05-21T07:49:51.425Z,100023.69
2023-05-21T07:52:18.002Z,100018.03
2023-05-21T07:54:44.692Z,100013.69
2023-05-21T07:57:11.344Z,100026.44
2023-05-21T07:59:56.594Z,100023.69
2023-05-21T08:02:23.714Z,100023.06
2023-05-21T08:04:52.574Z,100011.47
2023-05-21T08:07:21.428Z,100009.28
2023-05-21T08:09:47.986Z,100017.06
2023-05-21T08:12:15.915Z,100011.59
2023-05-21T08:14:43.555Z,100008.41
2023-05-21T08:17:12.004Z,100010.88
2023-05-21T08:19:38.759Z,100005.03
2023-05-21T08:22:08.927Z,100013.75
2023-05-21T08:24:37.568Z,100004.22
2023-05-21T08:27:04.495Z,100019.22
2023-05-21T08:29:32.974Z,100009.22
2023-05-21T08:31:59.563Z,100012.69
2023-05-21T08:34:26.710Z,100009.16
2023-05-21T08:37:05.125Z,100010.47
2023-05-21T08:39:57.621Z,100008.72
2023-05-21T08:42:48.553Z,100003.88
2023-05-21T08:45:21.788Z,100003.44
2023-05-21T08:47:56.005Z,100009.03
2023-05-21T08:50:27.502Z,100000.53
2023-05-21T08:52:57.511Z,100009.47
2023-05-21T08:55:24.824Z,99998.25
2023-05-21T08:57:54.261Z,99996.69
2023-05-21T09:00:21.230Z,99998.63
2023-05-21T09:02:47.920Z,99998.81
2023-05-21T09:05:18.543Z,99995.22
2023-05-21T09:08:06.748Z,99992.56
2023-05-21T09:10:52.452Z,100000.19
2023-05-21T09:13:25.206Z,100002.59
2023-05-21T09:15:52.179Z,99986.66
2023-05-21T09:18:20.342Z,99997.97
2023-05-21T09:20:54.073Z,99994.78
2023-05-21T09:23:20.871Z,99997.81
2023-05-21T09:25:49.236Z,99987.22
2023-05-21T09:28:24.920Z,99994.31
2023-05-21T09:30:54.622Z,99998.78
2023-05-21T09:33:31.356Z,99994.69
2023-05-21T09:35:58.384Z,99993.78
2023-05-21T09:38:26.983Z,99984.75
2023-05-21T09:40:57.081Z,99981.59
2023-05-21T09:43:25.176Z,99986.06
2023-05-21T09:45:56.562Z,99984.84
2023-05-21T09:48:41.945Z,99987.56
2023-05-21T09:51:12.902Z,99982.16
2023-05-21T09:53:58.224Z,99981.81
2023-05-21T09:56:26.671Z,99983.19
2023-05-21T09:58:58.011Z,99969.78
2023-05-21T10:01:25.242Z,99979.53
2023-05-21T10:03:57.119Z,99966.81
2023-05-21T10:06:32.164Z,99976.13
2023-05-21T10:09:04.716Z,99977.25
2023-05-21T10:11:32.960Z,99972.63
2023-05-21T10:14:14.774Z,99980.16
2023-05-21T10:16:42.634Z,99972.00
2023-05-21T10:19:12.255Z,99967.75
2023-05-21T10:21:40.923Z,99959.38
2023-05-21T10:24:10.829Z,99964.03
2023-05-21T10:26:39.460Z,99958.97
2023-05-21T10:29:07.801Z,99957.44
2023-05-21T10:31:36.006Z,99955.66
2023-05-21T10:34:03.705Z,99958.31
2023-05-21T10:36:33.476Z,99953.94
2023-05-21T10:39:01.947Z,99953.13
2023-05-21T10:41:37.028Z,99957.84
2023-05-21T10:44:06.586Z,99952.94
2023-05-21T10:47:00.429Z,99959.13
2023-05-21T10:49:54.775Z,99950.84
2023-05-21T10:52:57.023Z,99948.81
2023-05-21T10:55:41.181Z,99945.28
2023-05-21T10:58:38.204Z,99934.00
2023-05-21T11:01:06.928Z,99940.63
2023-05-21T11:03:36.691Z,99935.66
2023-05-21T11:06:08.393Z,99929.25
2023-05-21T11:08:36.122Z,99926.28
2023-05-21T11:11:04.073Z,99933.13
2023-05-21T11:13:50.805Z,99923.50
2023-05-21T11:16:18.300Z,99920.53
2023-05-21T11:18:44.764Z,99926.78
2023-05-21T11:21:15.953Z,99920.28
2023-05-21T11:23:53.032Z,99927.88
2023-05-21T11:26:27.322Z,99928.19
2023-05-21T11:29:03.819Z,99928.03
2023-05-21T11:31:39.833Z,99926.16
2023-05-21T11:34:17.261Z,99919.94
2023-05-21T11:36:46.754Z,99913.47
2023-05-21T11:39:23.949Z,99910.66
2023-05-21T11:42:04.417Z,99910.63
2023-05-21T11:44:45.840Z,99912.59
2023-05-21T11:47:15.114Z,99904.00
2023-05-21T11:49:42.570Z,99897.91
2023-05-21T11:52:10.564Z,99894.88
2023-05-21T11:54:46.385Z,99901.22
2023-05-21T11:57:17.637Z,99896.28
2023-05-21T11:59:48.376Z,99899.59
2023-05-21T12:02:16.832Z,99901.69
2023-05-21T12:04:44.714Z,99912.84
2023-05-21T12:07:15.219Z,99901.34
2023-05-21T12:09:43.841Z,99903.50
2023-05-21T12:12:13.185Z,99907.59
2023-05-21T12:14:40.632Z,99906.16
2023-05-21T12:17:07.777Z,99898.59
2023-05-21T12:19:35.558Z,99899.56
2023-05-21T12:22:06.581Z,99904.75
2023-05-21T12:24:34.532Z,99895.66
2023-05-21T12:27:03.209Z,99897.91
2023-05-21T12:29:33.560Z,99898.88
2023-05-21T12:32:01.282Z,99894.16
2023-05-21T12:34:44.511Z,99895.41
2023-05-21T12:37:20.798Z,99901.66
2023-05-21T12:39:52.922Z,99907.88
2023-05-21T12:42:27.397Z,99894.47
2023-05-21T12:44:54.450Z,99904.16
2023-05-21T12:47:24.311Z,99888.97
2023-05-21T12:49:55.582Z,99892.66
2023-05-21T12:52:22.423Z,99892.50
2023-05-21T12:54:53.605Z,99899.56
2023-05-21T12:57:25.466Z,99902.47
2023-05-21T12:59:53.213Z,99895.47
2023-05-21T13:02:40.146Z,99897.72
2023-05-21T13:05:15.458Z,99903.44
2023-05-21T13:07:43.864Z,99893.47
2023-05-21T13:10:11.250Z,99887.56
2023-05-21T13:12:37.793Z,99898.81
2023-05-21T13:15:06.039Z,99893.97
2023-05-21T13:17:32.764Z,99897.91
2023-05-21T13:20:16.637Z,99897.03
2023-05-21T13:22:49.263Z,99903.97
2023-05-21T13:25:21.442Z,99896.47
2023-05-21T13:27:49.697Z,99897.53
2023-05-21T13:30:16.800Z,99904.59
2023-05-21T13:32:43.941Z,99908.22
2023-05-21T13:35:11.889Z,99897.63
2023-05-21T13:37:40.172Z,99894.56
2023-05-21T13:40:10.971Z,99899.19
2023-05-21T13:42:38.483Z,99889.34
2023-05-21T13:45:07.079Z,99893.97
2023-05-21T13:47:33.766Z,99898.19
2023-05-21T13:50:00.483Z,99887.69
2023-05-21T13:52:27.213Z,99889.69
2023-05-21T13:54:53.863Z,99898.47
2023-05-21T13:57:21.093Z,99893.63
2023-05-21T13:59:50.571Z,99895.78
2023-05-21T14:02:17.102Z,99901.63
2023-05-21T14:04:43.681Z,99890.66
2023-05-21T14:07:11.327Z,99898.00
2023-05-21T14:09:38.053Z,99899.50
2023-05-21T14:12:06.605Z,99898.16
2023-05-21T14:14:33.555Z,99896.97
2023-05-21T14:17:00.373Z,99899.66
2023-05-21T14:19:27.125Z,99899.56
2023-05-21T14:21:53.834Z,99898.75
2023-05-21T14:24:20.572Z,99888.31
2023-05-21T14:26:47.136Z,99893.91
2023-05-21T14:29:14.089Z,99887.72
2023-05-21T14:31:40.631Z,99880.38
2023-05-21T14:34:08.663Z,99886.09
2023-05-21T14:36:36.308Z,99881.84
2023-05-21T14:39:03.036Z,99891.16
2023-05-21T14:41:29.952Z,99884.28
2023-05-21T14:43:56.411Z,99880.72
2023-05-21T14:46:23.067Z,99887.16
2023-05-21T14:48:49.614Z,99887.81
2023-05-21T14:51:16.242Z,99881.25
2023-05-21T14:53:42.703Z,99883.31
2023-05-21T14:56:09.357Z,99880.94
2023-05-21T14:58:35.816Z,99869.56
2023-05-21T15:01:04.070Z,99874.75
2023-05-21T15:03:31.012Z,99867.22
2023-05-21T15:05:58.505Z,99873.63
2023-05-21T15:08:25.522Z,99870.16
2023-05-21T15:10:52.165Z,99874.38
2023-05-21T15:13:18.905Z,99868.00
2023-05-21T15:15:45.562Z,99861.41
2023-05-21T15:18:12.326Z,99863.94
2023-05-21T15:20:39.010Z,99856.72
2023-05-21T15:23:16.096Z,99854.69
2023-05-21T15:25:43.778Z,99850.44
2023-05-21T15:28:11.826Z,99849.91
2023-05-21T15:30:38.452Z,99849.22
2023-05-21T15:33:04.918Z,99850.63
2023-05-21T15:35:31.636Z,99845.09
2023-05-21T15:37:58.239Z,99844.41
2023-05-21T15:40:26.925Z,99841.66
2023-05-21T15:42:53.824Z,99845.34
2023-05-21T15:45:20.378Z,99844.91
2023-05-21T15:47:46.975Z,99836.88
2023-05-21T15:50:13.501Z,99844.88
2023-05-21T15:52:42.185Z,99839.94
2023-05-21T15:55:09.253Z,99848.97
2023-05-21T15:57:35.810Z,99843.69
2023-05-21T16:00:02.325Z,99848.41
2023-05-21T16:02:35.182Z,99854.59
2023-05-21T16:05:01.935Z,99852.41
2023-05-21T16:07:28.452Z,99850.97
2023-05-21T16:09:55.102Z,99859.25
2023-05-21T16:12:21.667Z,99854.97
2023-05-21T16:14:52.025Z,99857.69
2023-05-21T16:17:21.514Z,99857.28
2023-05-21T16:19:48.077Z,99858.75
2023-05-21T16:22:14.695Z,99858.13
2023-05-21T16:24:41.187Z,99858.31
2023-05-21T16:27:07.707Z,99858.19
2023-05-21T16:29:34.163Z,99863.31
2023-05-21T16:32:00.725Z,99857.69
2023-05-21T16:34:27.373Z,99858.16
2023-05-21T16:36:54.007Z,99855.91
2023-05-21T16:39:20.577Z,99864.53
2023-05-21T16:41:47.394Z,99866.78
2023-05-21T16:44:14.504Z,99859.44
2023-05-21T16:46:41.101Z,99865.13
2023-05-21T16:49:07.587Z,99857.47
2023-05-21T16:51:34.256Z,99864.50
2023-05-21T16:54:02.281Z,99860.81
2023-05-21T16:56:28.871Z,99866.41
2023-05-21T16:58:55.353Z,99863.88
2023-05-21T17:01:22.238Z,99863.06
2023-05-21T17:03:48.988Z,99862.63
2023-05-21T17:06:15.648Z,99867.75
2023-05-21T17:08:42.740Z,99863.75
2023-05-21T17:11:09.474Z,99867.13
2023-05-21T17:13:35.964Z,99857.72
2023-05-21T17:16:02.524Z,99863.94
2023-05-21T17:18:29.190Z,99873.75
2023-05-21T17:20:56.356Z,99875.97
2023-05-21T17:23:22.984Z,99873.09
2023-05-21T17:25:49.558Z,99876.56
2023-05-21T17:28:16.063Z,99877.94
2023-05-21T17:30:43.036Z,99875.34
2023-05-21T17:33:10.519Z,99875.88
2023-05-21T17:35:37.501Z,99874.97
2023-05-21T17:38:04.327Z,99875.47
2023-05-21T17:40:30.901Z,99873.88
2023-05-21T17:42:57.603Z,99872.66
2023-05-21T17:45:24.131Z,99886.84
2023-05-21T17:47:50.824Z,99887.09
2023-05-21T17:50:17.446Z,99882.94
2023-05-21T17:52:43.936Z,99891.16
2023-05-21T17:55:10.499Z,99889.81
2023-05-21T17:57:36.960Z,99893.00
2023-05-21T18:00:05.152Z,99885.16
2023-05-21T18:02:38.546Z,99893.41
2023-05-21T18:05:05.398Z,99891.38
2023-05-21T18:07:32.240Z,99890.47
2023-05-21T18:09:58.849Z,99885.59
2023-05-21T18:12:25.565Z,99881.38
2023-05-21T18:14:52.076Z,99887.03
2023-05-21T18:17:18.806Z,99883.44
2023-05-21T18:19:45.363Z,99881.97
2023-05-21T18:22:11.880Z,99887.72
2023-05-21T18:24:39.521Z,99889.63
2023-05-21T18:27:06.168Z,99891.25
2023-05-21T18:29:32.728Z,99891.34
2023-05-21T18:31:59.599Z,99896.00
2023-05-21T18:34:26.055Z,99894.78
2023-05-21T18:36:54.498Z,99890.88
2023-05-21T18:39:24.693Z,99899.72
2023-05-21T18:41:55.801Z,99898.56
2023-05-21T18:44:29.678Z,99893.16
2023-05-21T18:46:57.662Z,99893.03
2023-05-21T18:49:24.564Z,99891.53
2023-05-21T18:51:51.168Z,99901.94
2023-05-21T18:54:17.686Z,99904.31
2023-05-21T18:56:44.261Z,99902.63
2023-05-21T18:59:10.819Z,99904.13
2023-05-21T19:01:37.410Z,99907.47
2023-05-21T19:04:04.346Z,99897.78
2023-05-21T19:06:31.235Z,99901.91
2023-05-21T19:08:57.787Z,99903.59
2023-05-21T19:11:27.450Z,99906.75
2023-05-21T19:13:54.058Z,99916.41
2023-05-21T19:16:20.865Z,99911.53
2023-05-21T19:18:47.653Z,99910.63
2023-05-21T19:21:14.133Z,99908.53
2023-05-21T19:23:52.113Z,99910.56
2023-05-21T19:26:21.143Z,99910.97
2023-05-21T19:28:52.803Z,99902.50
2023-05-21T19:31:20.037Z,99914.97
2023-05-21T19:33:46.704Z,99906.81
2023-05-21T19:36:13.248Z,99915.88
2023-05-21T19:38:48.889Z,99919.41
2023-05-21T19:41:16.421Z,99923.25
2023-05-21T19:43:43.212Z,99923.69
2023-05-21T19:46:10.125Z,99928.59
2023-05-21T19:48:36.726Z,99930.03
2023-05-21T19:51:03.463Z,99936.75
2023-05-21T19:53:29.987Z,99933.84
2023-05-21T19:55:56.603Z,99934.84
2023-05-21T19:58:26.726Z,99934.16
2023-05-21T20:00:55.673Z,99938.41
2023-05-21T20:03:22.244Z,99942.22
2023-05-21T20:05:48.792Z,99942.81
2023-05-21T20:08:16.347Z,99935.69
2023-05-21T20:10:42.869Z,99939.97
2023-05-21T20:13:09.762Z,99942.31
2023-05-21T20:15:36.480Z,99939.53
2023-05-21T20:18:03.330Z,99937.31
2023-05-21T20:20:29.950Z,99937.78
2023-05-21T20:23:03.086Z,99942.53
2023-05-21T20:25:30.257Z,99936.34
2023-05-21T20:27:58.545Z,99944.69
2023-05-21T20:30:31.588Z,99935.50
2023-05-21T20:33:00.049Z,99940.25
2023-05-21T20:35:27.618Z,99940.13
2023-05-21T20:37:54.453Z,99940.41
2023-05-21T20:40:21.011Z,99940.69
2023-05-21T20:42:50.211Z,99939.00
2023-05-21T20:45:16.897Z,99935.78
2023-05-21T20:47:43.533Z,99925.31
2023-05-21T20:50:12.016Z,99930.19
2023-05-21T20:52:38.584Z,99934.97
2023-05-21T20:55:05.724Z,99928.41
2023-05-21T20:57:32.496Z,99931.50
2023-05-21T20:59:59.209Z,99933.44
2023-05-21T21:02:26.701Z,99930.59
2023-05-21T21:04:53.731Z,99930.31
2023-05-21T21:07:20.440Z,99934.75
2023-05-21T21:09:48.194Z,99938.25
2023-05-21T21:12:26.175Z,99934.63
2023-05-21T21:14:53.915Z,99942.28
2023-05-21T21:17:20.535Z,99941.72
2023-05-21T21:19:47.246Z,99944.66
2023-05-21T21:22:15.529Z,99948.97
2023-05-21T21:24:42.130Z,99944.78
2023-05-21T21:27:08.809Z,99947.97
2023-05-21T21:29:35.380Z,99944.34
2023-05-21T21:32:02.314Z,99954.06
2023-05-21T21:34:28.848Z,99953.22
2023-05-21T21:36:55.534Z,99949.19
2023-05-21T21:39:22.218Z,99950.81
2023-05-21T21:41:48.814Z,99947.59
2023-05-21T21:44:15.645Z,99952.03
2023-05-21T21:46:42.336Z,99945.91
2023-05-21T21:49:08.861Z,99950.22
2023-05-21T21:51:36.813Z,99952.63
2023-05-21T21:54:03.471Z,99952.44
2023-05-21T21:56:29.903Z,99947.25
2023-05-21T21:58:56.693Z,99950.88
2023-05-21T22:01:23.363Z,99951.41
2023-05-21T22:03:50.098Z,99952.69
2023-05-21T22:06:16.617Z,99948.75
2023-05-21T22:08:43.364Z,99945.81
2023-05-21T22:11:10.466Z,99945.59
2023-05-21T22:13:37.600Z,99947.16
2023-05-21T22:16:05.508Z,99941.47
2023-05-21T22:18:41.436Z,99939.41
2023-05-21T22:21:10.364Z,99940.38
2023-05-21T22:23:38.506Z,99937.16
2023-05-21T22:26:05.783Z,99940.75
2023-05-21T22:28:32.748Z,99946.19
2023-05-21T22:30:59.321Z,99934.38
2023-05-21T22:33:26.828Z,99938.63
2023-05-21T22:35:54.320Z,99938.38
2023-05-21T22:38:21.346Z,99936.47
2023-05-21T22:40:48.033Z,99932.00
2023-05-21T22:43:14.628Z,99941.38
2023-05-21T22:45:41.099Z,99942.72
2023-05-21T22:48:09.227Z,99940.09
2023-05-21T22:50:36.197Z,99944.56
2023-05-21T22:53:02.971Z,99939.72
2023-05-21T22:55:29.733Z,99934.91
2023-05-21T22:57:56.431Z,99938.06
2023-05-21T23:00:23.120Z,99943.31
2023-05-21T23:02:52.202Z,99943.72
2023-05-21T23:05:20.507Z,99938.88
2023-05-21T23:07:47.251Z,99939.41
2023-05-21T23:10:13.844Z,99936.50
2023-05-21T23:12:40.863Z,99935.59
2023-05-21T23:15:09.472Z,99942.91
2023-05-21T23:17:36.358Z,99942.56
2023-05-21T23:20:03.436Z,99942.78
2023-05-21T23:22:29.995Z,99941.47
2023-05-21T23:24:56.564Z,99955.16
2023-05-21T23:27:23.139Z,99945.78
2023-05-21T23:29:49.648Z,99947.34
2023-05-21T23:32:16.387Z,99953.47
2023-05-21T23:34:42.976Z,99945.06
2023-05-21T23:37:09.646Z,99949.03
2023-05-21T23:39:36.611Z,99947.81
2023-05-21T23:42:03.524Z,99944.94
2023-05-21T23:44:30.208Z,99948.66
2023-05-21T23:46:56.826Z,99942.50
2023-05-21T23:49:23.544Z,99943.84
2023-05-21T23:51:50.880Z,99942.41
2023-05-21T23:54:17.772Z,99939.03
2023-05-21T23:56:44.502Z,99944.81
2023-05-21T23:59:11.008Z,99940.59
